Time;durP1;ratioP1;P1;durP2;ratioP2;P2;SDS_P1;SDS_P2;PMS_P1;PMS_P2;Temp;Humidity;BMP_temperature;BMP_pressure;BME280_temperature;BME280_humidity;BME280_pressure;Samples;Min_cycle;Max_cycle;Signal;HPM_P1;HPM_P2
2023/11/25 00:00:55;;;;;;;0.25;0.00;;;;;;;5.43;82.34;98881.03;5090877;28;20039;-69
2023/11/25 00:03:21;;;;;;;0.43;0.10;;;;;;;5.34;82.37;98881.91;5099804;28;20387;-68
2023/11/25 00:05:47;;;;;;;0.35;0.10;;;;;;;5.25;82.31;98888.78;5103369;28;20042;-69
2023/11/25 00:08:12;;;;;;;0.90;0.10;;;;;;;5.19;82.64;98894.56;5100497;28;20019;-69
2023/11/25 00:10:38;;;;;;;0.38;0.10;;;;;;;5.17;83.11;98895.69;5101878;28;20027;-69
2023/11/25 00:13:03;;;;;;;0.77;0.10;;;;;;;5.07;83.29;98907.84;5098154;28;20040;-69
2023/11/25 00:15:29;;;;;;;0.30;0.10;;;;;;;4.94;83.68;98903.84;5098405;28;20028;-69
2023/11/25 00:17:55;;;;;;;0.40;0.05;;;;;;;4.88;83.99;98911.38;5088839;28;20498;-69
2023/11/25 00:20:22;;;;;;;0.63;0.10;;;;;;;4.84;84.09;98916.00;5096824;28;20032;-69
2023/11/25 00:22:48;;;;;;;0.38;0.05;;;;;;;4.74;84.83;98911.84;5072475;28;20039;-69
2023/11/25 00:25:13;;;;;;;1.05;0.10;;;;;;;4.70;84.65;98913.94;5093691;28;20040;-69
2023/11/25 00:27:39;;;;;;;0.40;0.10;;;;;;;4.66;85.49;98910.03;5095289;28;20166;-69
2023/11/25 00:30:07;;;;;;;0.40;0.10;;;;;;;4.65;85.39;98916.13;5095865;28;20031;-69
2023/11/25 00:32:37;;;;;;;0.60;0.10;;;;;;;4.59;85.13;98912.38;5096094;28;20031;-69
2023/11/25 00:35:07;;;;;;;0.60;0.10;;;;;;;4.52;85.77;98923.41;5089037;28;20027;-69
2023/11/25 00:37:33;;;;;;;2.17;0.20;;;;;;;4.40;86.34;98927.09;5096211;28;20105;-69
2023/11/25 00:40:04;;;;;;;0.80;0.10;;;;;;;4.33;87.04;98926.84;5093972;28;20035;-69
2023/11/25 00:42:30;;;;;;;0.98;0.13;;;;;;;4.33;87.14;98926.84;5098784;28;20034;-69
2023/11/25 00:44:56;;;;;;;0.68;0.20;;;;;;;4.43;87.03;98919.09;5100778;28;20027;-69
2023/11/25 00:47:23;;;;;;;0.60;0.20;;;;;;;4.36;87.07;98916.25;5078023;28;20078;-69
2023/11/25 00:49:49;;;;;;;1.70;0.40;;;;;;;4.40;86.79;98916.78;5101771;28;20466;-69
2023/11/25 00:52:15;;;;;;;0.65;0.10;;;;;;;4.30;86.77;98917.66;5079818;28;20055;-69
2023/11/25 00:54:40;;;;;;;1.13;0.20;;;;;;;4.31;86.60;98923.59;5096170;28;20398;-69
2023/11/25 00:57:06;;;;;;;4.13;0.20;;;;;;;4.22;87.69;98927.88;5084556;28;20115;-69
2023/11/25 00:59:31;;;;;;;0.65;0.13;;;;;;;4.09;88.26;98926.56;5092091;28;20040;-69
2023/11/25 01:01:57;;;;;;;0.20;0.10;;;;;;;3.98;88.98;98930.13;5099702;28;20038;-69
2023/11/25 01:04:23;;;;;;;0.93;0.20;;;;;;;3.91;89.43;98922.13;5100920;28;20040;-69
2023/11/25 01:06:48;;;;;;;2.25;0.10;;;;;;;3.89;89.85;98939.50;5093391;28;20040;-69
2023/11/25 01:09:16;;;;;;;0.65;0.10;;;;;;;3.77;89.91;98934.66;5102835;28;20020;-69
2023/11/25 01:11:44;;;;;;;1.13;0.13;;;;;;;3.67;89.85;98940.63;5100354;28;20066;-69
2023/11/25 01:14:10;;;;;;;9.40;0.30;;;;;;;3.57;90.59;98944.97;5104849;28;20109;-69
2023/11/25 01:16:35;;;;;;;0.30;0.10;;;;;;;3.49;91.58;98952.56;5097055;28;20037;-69
2023/11/25 01:19:01;;;;;;;1.33;0.30;;;;;;;3.39;91.86;98946.59;5097734;28;20032;-69
2023/11/25 01:21:27;;;;;;;1.15;0.10;;;;;;;3.26;92.04;98951.22;5097008;28;20426;-69
2023/11/25 01:23:52;;;;;;;2.25;0.30;;;;;;;3.18;93.48;98944.16;5098594;28;20143;-69
2023/11/25 01:26:18;;;;;;;2.40;0.28;;;;;;;3.18;94.82;98936.44;5097939;28;20031;-69
2023/11/25 01:28:43;;;;;;;2.97;0.50;;;;;;;3.36;93.66;98939.16;5096307;28;20081;-69
2023/11/25 01:31:12;;;;;;;1.77;0.40;;;;;;;3.39;92.28;98946.59;5097897;28;20032;-69
2023/11/25 01:33:40;;;;;;;0.93;0.20;;;;;;;3.30;93.32;98947.44;5096394;28;20422;-69
2023/11/25 01:36:09;;;;;;;0.82;0.22;;;;;;;3.14;92.95;98947.16;5098437;28;20512;-69
2023/11/25 01:38:38;;;;;;;0.93;0.20;;;;;;;3.01;93.93;98942.25;5098997;28;20787;-69
2023/11/25 01:41:07;;;;;;;1.75;0.28;;;;;;;3.06;93.47;98937.53;5096565;28;20060;-69
2023/11/25 01:43:32;;;;;;;1.58;0.32;;;;;;;2.96;92.97;98941.84;5099157;28;20476;-69
2023/11/25 01:46:00;;;;;;;1.67;0.28;;;;;;;2.90;94.36;98938.03;5097438;28;20036;-69
2023/11/25 01:48:28;;;;;;;9.38;2.83;;;;;;;2.75;96.24;98939.38;5096675;28;20080;-69
2023/11/25 01:50:54;;;;;;;3.28;0.50;;;;;;;2.75;96.29;98941.94;5100679;28;20485;-69
2023/11/25 01:53:20;;;;;;;2.35;0.30;;;;;;;3.02;94.06;98940.50;5099098;28;20391;-69
2023/11/25 01:55:48;;;;;;;3.30;0.40;;;;;;;3.08;92.93;98932.25;5103450;28;20382;-69
2023/11/25 01:58:17;;;;;;;2.15;0.40;;;;;;;3.05;93.39;98935.06;5097372;28;20040;-69
2023/11/25 02:00:44;;;;;;;2.83;0.45;;;;;;;3.00;94.38;98938.03;5101225;28;20036;-69
2023/11/25 02:03:11;;;;;;;1.35;0.28;;;;;;;2.91;94.49;98944.81;5100323;28;20042;-69
2023/11/25 02:05:36;;;;;;;0.47;0.10;;;;;;;2.78;94.22;98951.97;5100052;28;20035;-69
2023/11/25 02:08:02;;;;;;;1.35;0.30;;;;;;;2.69;95.81;98950.19;5096247;28;20386;-69
2023/11/25 02:10:28;;;;;;;1.67;0.32;;;;;;;2.55;95.86;98958.25;5098987;28;20820;-69
2023/11/25 02:12:54;;;;;;;1.00;0.20;;;;;;;2.52;95.83;98954.19;5074350;28;20098;-69
2023/11/25 02:15:20;;;;;;;0.32;0.20;;;;;;;2.54;96.80;98952.28;5101734;28;20473;-69
2023/11/25 02:17:45;;;;;;;0.93;0.10;;;;;;;2.51;96.11;98938.88;5112189;28;20133;-69
2023/11/25 02:20:14;;;;;;;1.45;0.17;;;;;;;2.48;96.53;98939.97;5101099;28;20046;-69
2023/11/25 02:22:47;;;;;;;1.23;0.20;;;;;;;2.46;97.03;98936.72;5095770;28;20100;-69
2023/11/25 02:25:14;;;;;;;1.10;0.45;;;;;;;2.42;97.24;98937.09;5099227;28;20135;-69
2023/11/25 02:27:40;;;;;;;1.95;0.20;;;;;;;2.36;96.83;98929.94;5100422;28;20062;-69
2023/11/25 02:30:06;;;;;;;0.60;0.20;;;;;;;2.26;97.80;98935.03;5098043;28;20047;-69
2023/11/25 02:32:33;;;;;;;1.92;0.40;;;;;;;2.16;97.55;98929.84;5102396;28;20036;-69
2023/11/25 02:35:00;;;;;;;0.45;0.30;;;;;;;2.13;98.53;98935.22;5098752;28;20054;-69
2023/11/25 02:37:26;;;;;;;1.60;0.22;;;;;;;2.14;99.07;98936.03;5095131;28;20094;-69
2023/11/25 02:39:51;;;;;;;0.93;0.30;;;;;;;2.13;99.14;98937.81;5096624;28;20031;-69
2023/11/25 02:42:17;;;;;;;0.47;0.20;;;;;;;2.07;98.59;98948.59;5101143;28;20376;-69
2023/11/25 02:44:43;;;;;;;1.35;0.73;;;;;;;2.03;99.21;98961.81;5081181;28;20028;-69
2023/11/25 02:47:09;;;;;;;1.33;0.35;;;;;;;2.01;100.00;98964.50;5090925;28;20031;-69
2023/11/25 02:49:34;;;;;;;1.70;0.30;;;;;;;2.06;100.00;98954.66;5095239;28;20063;-69
2023/11/25 02:52:00;;;;;;;0.70;0.20;;;;;;;2.08;100.00;98959.69;5093319;28;20078;-69
2023/11/25 02:54:25;;;;;;;0.28;0.00;;;;;;;2.60;90.19;98974.91;5100821;28;20028;-70
2023/11/25 02:56:50;;;;;;;1.67;0.20;;;;;;;3.13;88.22;98972.06;5096462;28;20047;-69
2023/11/25 02:59:19;;;;;;;0.47;0.10;;;;;;;2.95;89.24;98969.31;5096603;28;20408;-69
2023/11/25 03:01:48;;;;;;;0.52;0.10;;;;;;;2.70;91.24;98974.13;5092401;28;20126;-69
2023/11/25 03:04:19;;;;;;;0.88;0.17;;;;;;;2.47;92.59;98970.94;5080767;28;20042;-69
2023/11/25 03:06:45;;;;;;;0.57;0.10;;;;;;;2.30;93.77;98973.19;5100110;28;20115;-69
2023/11/25 03:09:11;;;;;;;0.32;0.20;;;;;;;2.14;94.45;98979.72;5100218;28;20503;-69
2023/11/25 03:11:37;;;;;;;1.23;0.20;;;;;;;2.06;95.96;98977.78;5093503;28;20032;-69
2023/11/25 03:14:03;;;;;;;0.68;0.20;;;;;;;1.91;95.46;98979.03;5098820;28;20026;-69
2023/11/25 03:16:30;;;;;;;0.20;0.05;;;;;;;1.80;96.49;98986.81;5091878;28;20530;-69
2023/11/25 03:18:56;;;;;;;0.98;0.20;;;;;;;1.86;96.80;98981.19;5099290;28;20035;-69
2023/11/25 03:21:22;;;;;;;0.20;0.10;;;;;;;1.78;95.92;98981.00;5092259;28;20032;-69
2023/11/25 03:23:48;;;;;;;0.10;0.03;;;;;;;1.76;97.20;98998.28;5096386;28;25002;-69
2023/11/25 03:26:14;;;;;;;0.20;0.03;;;;;;;1.74;97.92;99011.25;5093371;28;20500;-69
2023/11/25 03:28:40;;;;;;;0.20;0.03;;;;;;;1.76;97.97;99014.50;5095878;28;20032;-69
2023/11/25 03:31:07;;;;;;;1.75;0.10;;;;;;;1.77;97.56;99007.63;5097247;28;20050;-69
2023/11/25 03:33:33;;;;;;;0.57;0.10;;;;;;;1.65;97.39;99005.09;5099085;28;20020;-69
2023/11/25 03:35:59;;;;;;;1.13;0.20;;;;;;;1.60;98.56;99009.78;5096575;28;20032;-69
2023/11/25 03:38:25;;;;;;;12.23;0.32;;;;;;;1.54;98.35;99010.28;5097168;28;20407;-69
2023/11/25 03:40:52;;;;;;;5.57;0.50;;;;;;;1.57;98.73;99007.47;5097963;28;20047;-69
2023/11/25 03:43:21;;;;;;;2.58;0.63;;;;;;;1.64;97.11;99021.44;5093296;28;20040;-69
2023/11/25 03:45:47;;;;;;;2.47;0.35;;;;;;;1.93;93.38;99021.63;5089703;28;20035;-69
2023/11/25 03:48:14;;;;;;;0.90;0.30;;;;;;;2.18;92.73;99024.78;5089573;28;20028;-69
2023/11/25 03:50:39;;;;;;;2.65;0.20;;;;;;;2.17;92.19;99025.72;5093367;28;20072;-69
2023/11/25 03:53:05;;;;;;;4.65;0.73;;;;;;;2.03;92.54;99024.28;5094603;28;20033;-69
2023/11/25 03:55:30;;;;;;;3.25;0.30;;;;;;;1.86;93.71;99023.09;5092069;28;20138;-69
2023/11/25 03:57:56;;;;;;;0.88;0.15;;;;;;;1.74;94.60;99023.28;5105850;28;20040;-69
2023/11/25 04:00:22;;;;;;;0.93;0.15;;;;;;;1.94;92.80;99022.44;5096631;28;20428;-69
2023/11/25 04:02:48;;;;;;;0.35;0.00;;;;;;;2.28;89.69;99023.09;5097282;28;20043;-69
2023/11/25 04:05:16;;;;;;;0.35;0.10;;;;;;;2.63;86.03;99015.00;5099234;28;20045;-69
2023/11/25 04:07:41;;;;;;;0.43;0.10;;;;;;;2.71;84.66;99014.34;5094516;28;20555;-70
2023/11/25 04:10:12;;;;;;;0.10;0.00;;;;;;;2.75;83.50;99008.81;5076852;28;20114;-69
2023/11/25 04:12:41;;;;;;;0.13;0.00;;;;;;;2.90;83.06;99012.63;5082071;28;20395;-69
2023/11/25 04:15:08;;;;;;;0.17;0.05;;;;;;;2.97;83.51;99003.44;5095135;28;20024;-69
2023/11/25 04:17:34;;;;;;;0.80;0.20;;;;;;;2.85;85.46;98993.38;5092813;28;20039;-69
2023/11/25 04:20:00;;;;;;;1.52;0.30;;;;;;;2.64;87.49;98991.72;5100653;28;20032;-69
2023/11/25 04:22:25;;;;;;;0.55;0.13;;;;;;;2.43;88.74;99000.41;5093880;28;20410;-69
2023/11/25 04:24:51;;;;;;;1.98;0.10;;;;;;;2.22;89.62;98996.13;5090502;28;20039;-69
2023/11/25 04:27:16;;;;;;;1.20;0.13;;;;;;;2.09;90.55;98995.53;5095796;28;20023;-69
2023/11/25 04:29:42;;;;;;;0.80;0.10;;;;;;;1.94;91.30;98994.19;5094202;28;20034;-69
2023/11/25 04:32:09;;;;;;;0.40;0.10;;;;;;;1.82;91.92;98997.78;5092115;28;20469;-69
2023/11/25 04:34:34;;;;;;;0.88;0.10;;;;;;;1.65;91.91;98989.69;5095264;28;20114;-69
2023/11/25 04:37:00;;;;;;;1.48;0.20;;;;;;;1.57;92.55;98984.34;5100006;28;20168;-69
2023/11/25 04:39:25;;;;;;;0.10;0.10;;;;;;;1.49;93.03;99002.13;5100880;28;20032;-69
2023/11/25 04:41:51;;;;;;;1.02;0.08;;;;;;;1.64;91.63;99006.03;5093511;28;20111;-69
2023/11/25 04:44:16;;;;;;;0.22;0.00;;;;;;;2.03;88.14;99011.44;5100100;28;20510;-69
2023/11/25 04:46:45;;;;;;;0.55;0.00;;;;;;;2.30;85.19;99019.44;5104343;28;20040;-69
2023/11/25 04:49:11;;;;;;;0.30;0.00;;;;;;;2.42;83.54;99027.06;5087633;28;20056;-70
2023/11/25 04:51:37;;;;;;;0.50;0.05;;;;;;;2.45;83.10;99022.47;5107926;28;20054;-69
2023/11/25 04:54:03;;;;;;;2.33;0.10;;;;;;;2.54;83.16;99029.44;5104326;28;20028;-71
2023/11/25 04:56:28;;;;;;;2.20;0.10;;;;;;;2.66;81.46;99035.31;5092766;28;20546;-73
2023/11/25 04:58:53;;;;;;;0.65;0.10;;;;;;;2.85;80.30;99049.97;5099601;28;20130;-69
2023/11/25 05:01:19;;;;;;;1.00;0.10;;;;;;;2.87;80.81;99054.06;5094262;28;20032;-71
2023/11/25 05:03:45;;;;;;;0.95;0.10;;;;;;;2.90;80.30;99069.22;5094766;28;20035;-72
2023/11/25 05:06:10;;;;;;;0.93;0.10;;;;;;;2.88;80.44;99067.72;5095874;28;20107;-69
2023/11/25 05:08:36;;;;;;;3.53;0.15;;;;;;;2.96;79.52;99063.56;5092870;28;20106;-69
2023/11/25 05:11:02;;;;;;;1.67;0.20;;;;;;;2.93;82.11;99073.31;5090573;28;20032;-69
2023/11/25 05:13:28;;;;;;;0.77;0.20;;;;;;;2.73;83.21;99093.00;5099543;28;20402;-69
2023/11/25 05:15:54;;;;;;;0.93;0.10;;;;;;;2.45;83.68;99097.03;5091768;28;20483;-69
2023/11/25 05:18:19;;;;;;;1.27;0.10;;;;;;;2.58;82.49;99089.13;5093717;28;20028;-69
2023/11/25 05:20:45;;;;;;;0.43;0.10;;;;;;;2.56;84.26;99091.00;5093479;28;20047;-69
2023/11/25 05:23:10;;;;;;;0.32;0.10;;;;;;;2.61;79.80;99099.97;5091929;28;20070;-69
2023/11/25 05:25:36;;;;;;;0.28;0.00;;;;;;;2.88;76.85;99116.59;5096327;28;20046;-69
2023/11/25 05:28:02;;;;;;;0.50;0.10;;;;;;;3.00;77.81;99131.03;5091906;28;20086;-69
2023/11/25 05:30:28;;;;;;;0.47;0.00;;;;;;;2.77;79.46;99137.28;5093300;28;20087;-69
2023/11/25 05:32:53;;;;;;;0.77;0.17;;;;;;;2.71;80.68;99143.75;5085971;28;20028;-69
2023/11/25 05:35:19;;;;;;;0.43;0.08;;;;;;;2.61;80.80;99150.59;5099864;28;20027;-69
2023/11/25 05:37:44;;;;;;;0.65;0.10;;;;;;;2.64;81.58;99163.19;5096659;28;20046;-69
2023/11/25 05:40:13;;;;;;;0.20;0.00;;;;;;;2.56;82.71;99152.72;5099659;28;20023;-69
2023/11/25 05:42:42;;;;;;;0.35;0.10;;;;;;;2.30;84.82;99173.66;5100340;28;20452;-69
2023/11/25 05:45:11;;;;;;;0.30;0.00;;;;;;;2.09;85.09;99180.50;5097359;28;20490;-69
2023/11/25 05:47:37;;;;;;;0.20;0.10;;;;;;;2.11;84.85;99163.22;5092755;28;20074;-69
2023/11/25 05:50:03;;;;;;;1.65;0.10;;;;;;;2.09;86.01;99185.66;5097361;28;20055;-69
2023/11/25 05:52:29;;;;;;;1.45;0.10;;;;;;;2.04;85.57;99182.63;5097432;28;20492;-69
2023/11/25 05:54:55;;;;;;;0.38;0.00;;;;;;;2.29;82.51;99172.03;5097337;28;20028;-69
2023/11/25 05:57:24;;;;;;;1.23;0.15;;;;;;;2.54;80.31;99165.69;5096818;28;20067;-69
2023/11/25 05:59:50;;;;;;;1.40;0.20;;;;;;;2.61;80.40;99177.13;5093317;28;20062;-69
2023/11/25 06:02:15;;;;;;;0.82;0.03;;;;;;;2.54;82.09;99180.31;5099782;28;20024;-69
2023/11/25 06:04:40;;;;;;;0.90;0.10;;;;;;;2.27;83.59;99183.38;5080221;28;20035;-68
2023/11/25 06:07:06;;;;;;;0.20;0.00;;;;;;;2.04;85.56;99182.63;5095601;28;20031;-69
2023/11/25 06:09:31;;;;;;;0.85;0.85;;;;;;;1.92;85.63;99181.84;5100918;28;20070;-69
2023/11/25 06:11:57;;;;;;;0.85;0.00;;;;;;;1.85;86.93;99197.88;5093507;28;20039;-69
2023/11/25 06:14:24;;;;;;;1.75;0.10;;;;;;;1.85;85.36;99203.81;5097897;28;20031;-68
2023/11/25 06:16:52;;;;;;;1.30;0.10;;;;;;;1.94;84.97;99221.06;5093881;28;20032;-69
2023/11/25 06:19:18;;;;;;;0.30;0.10;;;;;;;1.90;86.33;99222.22;5107258;28;20031;-68
2023/11/25 06:21:45;;;;;;;0.35;0.00;;;;;;;1.77;86.43;99228.47;5096723;28;20154;-69
2023/11/25 06:24:13;;;;;;;1.02;0.00;;;;;;;2.09;83.18;99242.16;5096534;28;20071;-69
2023/11/25 06:26:38;;;;;;;0.05;0.00;;;;;;;1.96;84.68;99247.44;5094817;28;20039;-69
2023/11/25 06:29:04;;;;;;;0.28;0.00;;;;;;;1.74;86.08;99246.69;5103944;28;20020;-69
2023/11/25 06:31:33;;;;;;;0.95;0.10;;;;;;;1.58;87.39;99252.16;5093719;28;20038;-69
2023/11/25 06:34:00;;;;;;;1.05;0.10;;;;;;;1.47;88.40;99240.13;5102126;28;20501;-69
2023/11/25 06:36:25;;;;;;;0.57;0.17;;;;;;;1.38;89.12;99240.84;5101881;28;20496;-69
2023/11/25 06:38:51;;;;;;;0.60;0.05;;;;;;;1.32;89.90;99247.28;5090888;28;20031;-69
2023/11/25 06:41:17;;;;;;;0.10;0.00;;;;;;;1.27;89.95;99238.28;5093322;28;20030;-69
2023/11/25 06:43:43;;;;;;;0.45;0.10;;;;;;;1.22;90.20;99248.06;5096086;28;20040;-69
2023/11/25 06:46:09;;;;;;;0.10;0.03;;;;;;;1.21;90.76;99249.81;5103905;28;20107;-69
2023/11/25 06:48:35;;;;;;;0.57;0.00;;;;;;;1.26;90.54;99252.84;5102108;28;20490;-69
2023/11/25 06:51:00;;;;;;;0.30;0.00;;;;;;;1.33;90.57;99264.31;5103734;28;20548;-69
2023/11/25 06:53:26;;;;;;;0.52;0.00;;;;;;;1.50;89.36;99275.84;5103992;28;20043;-69
2023/11/25 06:55:51;;;;;;;0.57;0.05;;;;;;;1.79;87.42;99283.91;5099477;28;20458;-69
2023/11/25 06:58:18;;;;;;;0.60;0.10;;;;;;;1.94;86.81;99269.88;5100654;28;20024;-69
2023/11/25 07:00:44;;;;;;;1.27;0.10;;;;;;;1.95;87.77;99280.97;5104483;28;20131;-68
2023/11/25 07:03:11;;;;;;;0.30;0.00;;;;;;;1.85;88.15;99283.44;5101449;28;20036;-68
2023/11/25 07:05:37;;;;;;;0.45;0.05;;;;;;;1.89;88.11;99289.16;5092344;28;20032;-69
2023/11/25 07:08:02;;;;;;;0.25;0.10;;;;;;;1.87;88.74;99280.75;5096482;28;20047;-69
2023/11/25 07:10:34;;;;;;;1.83;0.10;;;;;;;1.96;87.86;99282.59;5097066;28;20115;-69
2023/11/25 07:13:00;;;;;;;0.00;0.00;;;;;;;2.10;87.44;99289.25;5097785;28;20062;-69
2023/11/25 07:15:25;;;;;;;0.65;0.10;;;;;;;2.29;83.91;99289.44;5096640;28;20435;-69
2023/11/25 07:17:51;;;;;;;1.08;0.13;;;;;;;2.40;83.67;99286.00;5097545;28;20086;-69
2023/11/25 07:20:18;;;;;;;0.50;0.10;;;;;;;2.48;82.21;99292.19;5094427;28;20132;-69
2023/11/25 07:22:44;;;;;;;1.45;0.00;;;;;;;2.56;83.76;99287.25;5079056;28;20119;-69
2023/11/25 07:25:11;;;;;;;1.85;0.10;;;;;;;2.48;85.22;99291.34;5096297;28;20039;-69
2023/11/25 07:27:44;;;;;;;0.25;0.00;;;;;;;2.31;86.70;99301.25;5092929;28;20028;-69
2023/11/25 07:30:11;;;;;;;0.40;0.10;;;;;;;2.23;87.14;99311.31;5094779;28;20411;-68
2023/11/25 07:32:40;;;;;;;0.30;0.03;;;;;;;2.35;85.72;99301.81;5091027;28;20031;-69
2023/11/25 07:35:07;;;;;;;0.30;0.08;;;;;;;2.53;84.31;99299.53;5093773;28;20098;-69
2023/11/25 07:37:34;;;;;;;1.02;0.10;;;;;;;2.73;81.83;99308.22;5097789;28;20036;-69
2023/11/25 07:40:02;;;;;;;0.55;0.00;;;;;;;2.91;81.65;99302.41;5100515;28;20042;-69
2023/11/25 07:42:28;;;;;;;0.08;0.00;;;;;;;3.06;79.91;99304.69;5096057;28;20036;-69
2023/11/25 07:44:53;;;;;;;0.75;0.05;;;;;;;3.19;79.39;99311.28;5092624;28;20038;-69
2023/11/25 07:47:19;;;;;;;0.68;0.10;;;;;;;3.28;81.18;99325.16;5090338;28;20481;-69
2023/11/25 07:49:44;;;;;;;2.47;0.10;;;;;;;3.32;80.64;99318.78;5093864;28;20425;-70
2023/11/25 07:52:10;;;;;;;1.45;0.20;;;;;;;3.40;80.69;99318.97;5082757;28;20063;-69
2023/11/25 07:54:35;;;;;;;0.30;0.00;;;;;;;3.45;79.85;99310.88;5092391;28;20365;-69
2023/11/25 07:57:03;;;;;;;0.80;0.10;;;;;;;3.46;81.86;99328.78;5091395;28;20063;-69
2023/11/25 07:59:29;;;;;;;2.38;0.10;;;;;;;3.42;78.71;99327.41;5090732;28;20440;-69
2023/11/25 08:01:54;;;;;;;1.48;0.57;;;;;;;3.55;79.91;99322.88;5091276;28;20028;-69
2023/11/25 08:04:20;;;;;;;0.93;0.10;;;;;;;3.63;80.13;99335.94;5091216;28;20046;-69
2023/11/25 08:06:45;;;;;;;0.30;0.10;;;;;;;3.70;77.08;99328.50;5089422;28;20086;-69
2023/11/25 08:09:12;;;;;;;1.05;0.13;;;;;;;3.86;79.19;99330.59;5091204;28;20081;-69
2023/11/25 08:11:37;;;;;;;0.22;0.10;;;;;;;3.89;77.25;99336.31;5090544;28;20064;-69
2023/11/25 08:14:03;;;;;;;0.25;0.10;;;;;;;4.07;76.82;99333.13;5091119;28;20068;-69
2023/11/25 08:16:29;;;;;;;0.60;0.00;;;;;;;4.17;79.45;99339.13;5090242;28;20051;-69
2023/11/25 08:18:55;;;;;;;1.08;0.10;;;;;;;4.07;79.36;99339.09;5090823;28;20036;-69
2023/11/25 08:21:21;;;;;;;0.40;0.10;;;;;;;4.23;78.34;99344.59;5090801;28;20081;-69
2023/11/25 08:23:46;;;;;;;0.20;0.00;;;;;;;4.50;75.74;99345.72;5090177;28;20032;-69
2023/11/25 08:26:22;;;;;;;0.13;0.00;;;;;;;4.62;74.21;99349.81;5090883;28;20092;-69
2023/11/25 08:28:49;;;;;;;0.00;0.00;;;;;;;5.34;60.64;99341.66;5072102;28;20028;-71
2023/11/25 08:31:16;;;;;;;0.00;0.00;;;;;;;5.87;58.37;99338.50;5090992;28;20113;-69
2023/11/25 08:33:42;;;;;;;0.00;0.00;;;;;;;6.08;60.15;99346.09;5093264;28;20028;-69
2023/11/25 08:36:09;;;;;;;0.00;0.00;;;;;;;6.10;61.14;99339.81;5090748;28;20507;-67
2023/11/25 08:38:35;;;;;;;0.25;0.00;;;;;;;6.10;62.39;99339.81;5090240;28;20479;-67
2023/11/25 08:41:00;;;;;;;0.47;0.00;;;;;;;6.28;56.54;99343.25;5090751;28;20042;-71
2023/11/25 08:43:26;;;;;;;0.20;0.00;;;;;;;6.37;58.92;99356.28;5090703;28;20541;-69
2023/11/25 08:45:53;;;;;;;0.10;0.00;;;;;;;6.28;62.64;99353.59;5090119;28;20399;-69
2023/11/25 08:48:19;;;;;;;0.50;0.10;;;;;;;6.30;58.70;99358.63;5090829;28;20023;-69
2023/11/25 08:50:45;;;;;;;0.10;0.00;;;;;;;6.44;58.83;99367.69;5090215;28;20114;-69
2023/11/25 08:53:10;;;;;;;0.28;0.08;;;;;;;6.37;58.59;99364.03;5090670;28;20484;-71
2023/11/25 08:55:36;;;;;;;0.00;0.00;;;;;;;6.60;53.05;99367.88;5090171;28;20120;-69
2023/11/25 08:58:03;;;;;;;0.00;0.00;;;;;;;6.73;56.01;99372.69;5086171;28;20134;-72
2023/11/25 09:00:29;;;;;;;0.00;0.00;;;;;;;6.89;54.52;99378.03;5089243;28;20036;-69
2023/11/25 09:02:57;;;;;;;0.00;0.00;;;;;;;6.84;53.22;99388.00;5094625;28;20031;-71
2023/11/25 09:05:25;;;;;;;0.00;0.00;;;;;;;6.79;55.92;99400.56;5094620;28;20123;-69
2023/11/25 09:07:55;;;;;;;0.00;0.00;;;;;;;6.65;55.83;99404.47;5093882;28;20475;-67
2023/11/25 09:10:22;;;;;;;0.00;0.00;;;;;;;6.64;54.35;99408.81;5094449;28;20043;-67
2023/11/25 09:12:48;;;;;;;0.00;0.00;;;;;;;6.63;56.75;99403.78;5093746;28;20032;-67
2023/11/25 09:15:14;;;;;;;0.22;0.00;;;;;;;6.59;55.38;99403.28;5094436;28;20111;-67
2023/11/25 09:17:41;;;;;;;1.85;0.00;;;;;;;6.66;56.54;99398.31;5093904;28;20456;-67
2023/11/25 09:20:11;;;;;;;0.32;0.00;;;;;;;6.69;56.85;99389.47;5094281;28;20118;-66
2023/11/25 09:22:41;;;;;;;0.00;0.00;;;;;;;6.66;55.56;99377.63;5093817;28;20035;-67
2023/11/25 09:25:11;;;;;;;0.00;0.00;;;;;;;6.64;57.76;99389.88;5094127;28;20040;-66
2023/11/25 09:27:38;;;;;;;0.00;0.00;;;;;;;6.55;59.34;99388.19;5093433;28;20039;-67
2023/11/25 09:30:05;;;;;;;0.10;0.00;;;;;;;6.54;58.24;99394.31;5093933;28;20032;-69
2023/11/25 09:32:31;;;;;;;0.00;0.00;;;;;;;6.56;56.63;99406.16;5093533;28;20509;-68
2023/11/25 09:34:57;;;;;;;0.00;0.00;;;;;;;6.55;58.85;99406.31;5094157;28;20028;-67
2023/11/25 09:37:23;;;;;;;0.00;0.00;;;;;;;6.54;57.78;99407.28;5093989;28;20039;-66
2023/11/25 09:39:49;;;;;;;0.10;0.00;;;;;;;6.51;57.54;99410.16;5093207;28;20107;-68
2023/11/25 09:42:14;;;;;;;0.30;0.00;;;;;;;6.60;57.96;99404.09;5093824;28;20544;-67
2023/11/25 09:44:40;;;;;;;0.13;0.00;;;;;;;6.62;57.79;99394.41;5092933;28;20436;-67
2023/11/25 09:47:06;;;;;;;0.10;0.00;;;;;;;6.64;57.74;99402.84;5093788;28;20034;-67
2023/11/25 09:49:32;;;;;;;1.00;0.10;;;;;;;6.63;58.28;99404.59;5093200;28;20028;-66
2023/11/25 09:52:05;;;;;;;0.20;0.00;;;;;;;6.59;57.99;99407.66;5093814;28;20028;-66
2023/11/25 09:54:31;;;;;;;0.00;0.00;;;;;;;6.52;60.04;99402.25;5093294;28;20024;-66
2023/11/25 09:56:58;;;;;;;0.10;0.00;;;;;;;6.48;56.75;99397.50;5093781;28;20039;-68
2023/11/25 09:59:24;;;;;;;0.00;0.00;;;;;;;6.62;57.48;99394.41;5093604;28;20047;-67
2023/11/25 10:01:50;;;;;;;0.10;0.00;;;;;;;6.63;55.39;99383.09;5092984;28;20065;-67
2023/11/25 10:04:16;;;;;;;0.10;0.00;;;;;;;6.70;54.46;99396.25;5093462;28;20531;-66
2023/11/25 10:06:42;;;;;;;0.20;0.00;;;;;;;6.72;52.57;99396.94;5092670;28;20032;-66
2023/11/25 10:09:11;;;;;;;0.08;0.00;;;;;;;6.80;55.79;99392.66;5093450;28;20077;-66
2023/11/25 10:11:42;;;;;;;0.30;0.00;;;;;;;7.11;52.68;99394.88;5091916;28;20039;-67
2023/11/25 10:14:14;;;;;;;0.38;0.00;;;;;;;7.19;50.03;99400.13;5093295;28;20387;-66
2023/11/25 10:16:44;;;;;;;0.30;0.10;;;;;;;7.24;50.35;99392.75;5092825;28;20028;-68
2023/11/25 10:19:20;;;;;;;0.68;0.00;;;;;;;7.31;46.33;99383.41;5093157;28;20039;-67
2023/11/25 10:21:51;;;;;;;0.10;0.00;;;;;;;7.28;43.74;99381.94;5092647;28;20032;-67
2023/11/25 10:24:20;;;;;;;0.40;0.10;;;;;;;7.30;46.75;99384.38;5092877;28;20036;-67
2023/11/25 10:26:46;;;;;;;0.05;0.00;;;;;;;7.32;48.60;99362.53;5092388;28;20078;-68
2023/11/25 10:29:14;;;;;;;0.30;0.05;;;;;;;7.40;47.83;99366.16;5093017;28;20035;-67
2023/11/25 10:31:44;;;;;;;0.13;0.00;;;;;;;7.52;40.93;99376.13;5092516;28;20574;-67
2023/11/25 10:34:10;;;;;;;0.10;0.00;;;;;;;7.56;45.59;99376.66;5092959;28;20028;-66
2023/11/25 10:36:37;;;;;;;0.35;0.00;;;;;;;7.53;41.21;99372.56;5092348;28;20498;-67
2023/11/25 10:39:04;;;;;;;0.00;0.00;;;;;;;7.72;40.38;99370.72;5092620;28;20093;-67
2023/11/25 10:41:31;;;;;;;0.00;0.00;;;;;;;7.82;40.32;99369.66;5092440;28;20396;-69
2023/11/25 10:43:57;;;;;;;0.00;0.00;;;;;;;7.93;40.71;99360.81;5093747;28;20032;-66
2023/11/25 10:46:38;;;;;;;0.10;0.00;;;;;;;7.77;40.84;99363.31;5105381;28;20032;-67
2023/11/25 10:49:06;;;;;;;0.38;0.00;;;;;;;7.72;42.69;99363.75;5094556;28;20038;-67
2023/11/25 10:51:33;;;;;;;1.30;0.00;;;;;;;7.76;41.50;99359.09;5091558;28;20062;-67
2023/11/25 10:53:59;;;;;;;0.00;0.00;;;;;;;7.76;41.69;99353.91;5091015;28;20031;-66
2023/11/25 10:56:27;;;;;;;0.00;0.00;;;;;;;7.65;46.83;99360.16;5090510;28;20032;-66
2023/11/25 10:58:54;;;;;;;0.00;0.00;;;;;;;7.77;40.23;99358.13;5091886;28;20058;-66
2023/11/25 11:01:21;;;;;;;0.00;0.00;;;;;;;7.77;43.32;99358.94;5097065;28;20079;-67
2023/11/25 11:03:55;;;;;;;0.00;0.00;;;;;;;7.72;40.98;99358.56;5099510;28;20105;-67
2023/11/25 11:06:27;;;;;;;0.00;0.00;;;;;;;7.76;43.62;99353.91;5093939;28;20031;-67
2023/11/25 11:08:54;;;;;;;0.00;0.00;;;;;;;7.70;37.63;99362.28;5093471;28;20491;-68
2023/11/25 11:11:45;;;;;;;0.20;0.00;;;;;;;7.72;40.89;99361.16;5099291;28;20039;-67
2023/11/25 11:14:14;;;;;;;0.00;0.00;;;;;;;7.66;43.63;99365.19;5091051;28;20051;-66
2023/11/25 11:16:40;;;;;;;1.67;0.00;;;;;;;7.65;41.30;99355.78;5095178;28;20036;-67
2023/11/25 11:19:07;;;;;;;0.05;0.00;;;;;;;7.69;45.79;99363.25;5095429;28;20031;-66
2023/11/25 11:21:36;;;;;;;0.00;0.00;;;;;;;7.70;45.64;99363.09;5093364;28;20471;-67
2023/11/25 11:24:02;;;;;;;0.10;0.00;;;;;;;7.60;44.94;99358.00;5093673;28;20036;-67
2023/11/25 11:26:45;;;;;;;0.00;0.00;;;;;;;7.57;44.22;99357.50;5101208;28;20049;-71
2023/11/25 11:29:19;;;;;;;0.00;0.00;;;;;;;7.76;38.65;99366.88;5097716;28;20099;-66
2023/11/25 11:31:57;;;;;;;0.22;0.00;;;;;;;7.85;38.87;99364.16;5095035;28;20054;-67
2023/11/25 11:34:26;;;;;;;0.10;0.00;;;;;;;7.85;41.72;99356.41;5103543;28;20349;-67
2023/11/25 11:36:52;;;;;;;0.10;0.00;;;;;;;7.81;44.08;99359.44;5097461;28;20103;-67
2023/11/25 11:39:41;;;;;;;0.10;0.00;;;;;;;7.72;39.34;99355.97;5099525;28;20169;-66